sensor_id;sensor_type;location;lat;lon;timestamp;temperature;humidity
29093;DHT22;16167;48.768;14.984;2024-02-26T00:00:34;2.30;99.90
29093;DHT22;16167;48.768;14.984;2024-02-26T00:03:04;2.30;99.90
29093;DHT22;16167;48.768;14.984;2024-02-26T00:05:33;2.30;99.90
29093;DHT22;16167;48.768;14.984;2024-02-26T00:08:01;2.30;99.90
29093;DHT22;16167;48.768;14.984;2024-02-26T00:10:31;2.30;99.90
29093;DHT22;16167;48.768;14.984;2024-02-26T00:13:00;2.30;99.90
29093;DHT22;16167;48.768;14.984;2024-02-26T00:15:28;2.30;99.90
29093;DHT22;16167;48.768;14.984;2024-02-26T00:17:56;2.30;99.90
29093;DHT22;16167;48.768;14.984;2024-02-26T00:20:26;2.30;99.90
29093;DHT22;16167;48.768;14.984;2024-02-26T00:22:54;2.30;99.90
29093;DHT22;16167;48.768;14.984;2024-02-26T00:25:22;2.30;99.90
29093;DHT22;16167;48.768;14.984;2024-02-26T00:27:50;2.30;99.90
29093;DHT22;16167;48.768;14.984;2024-02-26T00:30:18;2.30;99.90
29093;DHT22;16167;48.768;14.984;2024-02-26T00:32:46;2.20;99.90
29093;DHT22;16167;48.768;14.984;2024-02-26T00:35:15;2.20;99.90
29093;DHT22;16167;48.768;14.984;2024-02-26T00:37:48;2.20;99.90
29093;DHT22;16167;48.768;14.984;2024-02-26T00:40:16;2.20;99.90
29093;DHT22;16167;48.768;14.984;2024-02-26T00:42:44;2.20;99.90
29093;DHT22;16167;48.768;14.984;2024-02-26T00:45:15;2.20;99.90
29093;DHT22;16167;48.768;14.984;2024-02-26T00:47:43;2.20;99.90
29093;DHT22;16167;48.768;14.984;2024-02-26T00:50:15;2.20;99.90
29093;DHT22;16167;48.768;14.984;2024-02-26T00:52:43;2.20;99.90
29093;DHT22;16167;48.768;14.984;2024-02-26T00:55:13;2.20;99.90
29093;DHT22;16167;48.768;14.984;2024-02-26T00:57:41;2.20;99.90
29093;DHT22;16167;48.768;14.984;2024-02-26T01:00:10;2.20;99.90
29093;DHT22;16167;48.768;14.984;2024-02-26T01:02:39;2.20;99.90
29093;DHT22;16167;48.768;14.984;2024-02-26T01:05:09;2.20;99.90
29093;DHT22;16167;48.768;14.984;2024-02-26T01:07:37;2.10;99.90
29093;DHT22;16167;48.768;14.984;2024-02-26T01:10:07;2.10;99.90
29093;DHT22;16167;48.768;14.984;2024-02-26T01:12:36;2.10;99.90
29093;DHT22;16167;48.768;14.984;2024-02-26T01:15:06;2.10;99.90
29093;DHT22;16167;48.768;14.984;2024-02-26T01:17:35;2.10;99.90
29093;DHT22;16167;48.768;14.984;2024-02-26T01:20:04;2.10;99.90
29093;DHT22;16167;48.768;14.984;2024-02-26T01:22:33;2.00;99.90
29093;DHT22;16167;48.768;14.984;2024-02-26T01:25:01;2.00;99.90
29093;DHT22;16167;48.768;14.984;2024-02-26T01:27:29;2.00;99.90
29093;DHT22;16167;48.768;14.984;2024-02-26T01:29:59;2.00;99.90
29093;DHT22;16167;48.768;14.984;2024-02-26T01:32:27;1.90;99.90
29093;DHT22;16167;48.768;14.984;2024-02-26T01:34:55;1.90;99.90
29093;DHT22;16167;48.768;14.984;2024-02-26T01:37:24;1.90;99.90
29093;DHT22;16167;48.768;14.984;2024-02-26T01:39:52;1.80;99.90
29093;DHT22;16167;48.768;14.984;2024-02-26T01:42:20;1.80;99.90
29093;DHT22;16167;48.768;14.984;2024-02-26T01:44:48;1.80;99.90
29093;DHT22;16167;48.768;14.984;2024-02-26T01:47:18;1.80;99.90
29093;DHT22;16167;48.768;14.984;2024-02-26T01:49:46;1.80;99.90
29093;DHT22;16167;48.768;14.984;2024-02-26T01:52:16;1.80;99.90
29093;DHT22;16167;48.768;14.984;2024-02-26T01:54:45;1.80;99.90
29093;DHT22;16167;48.768;14.984;2024-02-26T01:57:14;1.80;99.90
29093;DHT22;16167;48.768;14.984;2024-02-26T01:59:43;1.80;99.90
29093;DHT22;16167;48.768;14.984;2024-02-26T02:02:15;1.70;99.90
29093;DHT22;16167;48.768;14.984;2024-02-26T02:04:46;1.70;99.90
29093;DHT22;16167;48.768;14.984;2024-02-26T02:07:14;1.70;99.90
29093;DHT22;16167;48.768;14.984;2024-02-26T02:09:43;1.70;99.90
29093;DHT22;16167;48.768;14.984;2024-02-26T02:12:12;1.60;99.90
29093;DHT22;16167;48.768;14.984;2024-02-26T02:14:42;1.60;99.90
29093;DHT22;16167;48.768;14.984;2024-02-26T02:17:10;1.60;99.90
29093;DHT22;16167;48.768;14.984;2024-02-26T02:19:39;1.60;99.90
29093;DHT22;16167;48.768;14.984;2024-02-26T02:22:08;1.60;99.90
29093;DHT22;16167;48.768;14.984;2024-02-26T02:24:36;1.50;99.90
29093;DHT22;16167;48.768;14.984;2024-02-26T02:27:05;1.50;99.90
29093;DHT22;16167;48.768;14.984;2024-02-26T02:29:33;1.50;99.90
29093;DHT22;16167;48.768;14.984;2024-02-26T02:32:02;1.50;99.90
29093;DHT22;16167;48.768;14.984;2024-02-26T02:34:32;1.50;99.90
29093;DHT22;16167;48.768;14.984;2024-02-26T02:37:00;1.40;99.90
29093;DHT22;16167;48.768;14.984;2024-02-26T02:39:30;1.50;99.90
29093;DHT22;16167;48.768;14.984;2024-02-26T02:41:58;1.40;99.90
29093;DHT22;16167;48.768;14.984;2024-02-26T02:44:27;1.40;99.90
29093;DHT22;16167;48.768;14.984;2024-02-26T02:46:55;1.40;99.90
29093;DHT22;16167;48.768;14.984;2024-02-26T02:49:23;1.40;99.90
29093;DHT22;16167;48.768;14.984;2024-02-26T02:51:51;1.40;99.90
29093;DHT22;16167;48.768;14.984;2024-02-26T02:54:21;1.40;99.90
29093;DHT22;16167;48.768;14.984;2024-02-26T02:56:50;1.30;99.90
29093;DHT22;16167;48.768;14.984;2024-02-26T02:59:19;1.40;99.90
29093;DHT22;16167;48.768;14.984;2024-02-26T03:01:47;1.40;99.90
29093;DHT22;16167;48.768;14.984;2024-02-26T03:04:16;1.40;99.90
29093;DHT22;16167;48.768;14.984;2024-02-26T03:06:44;1.30;99.90
29093;DHT22;16167;48.768;14.984;2024-02-26T03:09:13;1.30;99.90
29093;DHT22;16167;48.768;14.984;2024-02-26T03:11:41;1.30;99.90
29093;DHT22;16167;48.768;14.984;2024-02-26T03:14:11;1.30;99.90
29093;DHT22;16167;48.768;14.984;2024-02-26T03:16:39;1.30;99.90
29093;DHT22;16167;48.768;14.984;2024-02-26T03:19:08;1.30;99.90
29093;DHT22;16167;48.768;14.984;2024-02-26T03:21:36;1.30;99.90
29093;DHT22;16167;48.768;14.984;2024-02-26T03:24:05;1.30;99.90
29093;DHT22;16167;48.768;14.984;2024-02-26T03:26:36;1.30;99.90
29093;DHT22;16167;48.768;14.984;2024-02-26T03:29:04;1.30;99.90
29093;DHT22;16167;48.768;14.984;2024-02-26T03:31:34;1.30;99.90
29093;DHT22;16167;48.768;14.984;2024-02-26T03:34:02;1.30;99.90
29093;DHT22;16167;48.768;14.984;2024-02-26T03:36:30;1.30;99.90
29093;DHT22;16167;48.768;14.984;2024-02-26T03:38:58;1.30;99.90
29093;DHT22;16167;48.768;14.984;2024-02-26T03:41:27;1.20;99.90
29093;DHT22;16167;48.768;14.984;2024-02-26T03:43:54;1.30;99.90
29093;DHT22;16167;48.768;14.984;2024-02-26T03:46:22;1.30;99.90
29093;DHT22;16167;48.768;14.984;2024-02-26T03:48:52;1.20;99.90
29093;DHT22;16167;48.768;14.984;2024-02-26T03:51:20;1.30;99.90
29093;DHT22;16167;48.768;14.984;2024-02-26T03:53:48;1.30;99.90
29093;DHT22;16167;48.768;14.984;2024-02-26T03:56:17;1.30;99.90
29093;DHT22;16167;48.768;14.984;2024-02-26T03:58:45;1.30;99.90
29093;DHT22;16167;48.768;14.984;2024-02-26T04:01:13;1.30;99.90
29093;DHT22;16167;48.768;14.984;2024-02-26T04:03:41;1.30;99.90
29093;DHT22;16167;48.768;14.984;2024-02-26T04:06:12;1.30;99.90
29093;DHT22;16167;48.768;14.984;2024-02-26T04:08:41;1.20;99.90
29093;DHT22;16167;48.768;14.984;2024-02-26T04:11:09;1.20;99.90
29093;DHT22;16167;48.768;14.984;2024-02-26T04:13:38;1.20;99.90
29093;DHT22;16167;48.768;14.984;2024-02-26T04:16:06;1.20;99.90
29093;DHT22;16167;48.768;14.984;2024-02-26T04:18:35;1.20;99.90
29093;DHT22;16167;48.768;14.984;2024-02-26T04:21:03;1.10;99.90
29093;DHT22;16167;48.768;14.984;2024-02-26T04:23:36;1.10;99.90
29093;DHT22;16167;48.768;14.984;2024-02-26T04:26:04;1.10;99.90
29093;DHT22;16167;48.768;14.984;2024-02-26T04:28:33;1.10;99.90
29093;DHT22;16167;48.768;14.984;2024-02-26T04:31:01;1.10;99.90
29093;DHT22;16167;48.768;14.984;2024-02-26T04:33:29;1.10;99.90
29093;DHT22;16167;48.768;14.984;2024-02-26T04:35:58;1.00;99.90
29093;DHT22;16167;48.768;14.984;2024-02-26T04:38:26;1.00;99.90
29093;DHT22;16167;48.768;14.984;2024-02-26T04:40:56;1.00;99.90
29093;DHT22;16167;48.768;14.984;2024-02-26T04:43:24;0.90;99.90
29093;DHT22;16167;48.768;14.984;2024-02-26T04:45:52;0.80;99.90
29093;DHT22;16167;48.768;14.984;2024-02-26T04:48:21;0.80;99.90
29093;DHT22;16167;48.768;14.984;2024-02-26T04:50:50;0.80;99.90
29093;DHT22;16167;48.768;14.984;2024-02-26T04:53:18;0.80;99.90
29093;DHT22;16167;48.768;14.984;2024-02-26T04:55:46;0.80;99.90
29093;DHT22;16167;48.768;14.984;2024-02-26T04:58:16;0.80;99.90
29093;DHT22;16167;48.768;14.984;2024-02-26T05:00:44;0.70;99.90
29093;DHT22;16167;48.768;14.984;2024-02-26T05:03:12;0.70;99.90
29093;DHT22;16167;48.768;14.984;2024-02-26T05:05:43;0.70;99.90
29093;DHT22;16167;48.768;14.984;2024-02-26T05:08:11;0.70;99.90
29093;DHT22;16167;48.768;14.984;2024-02-26T05:10:40;0.80;99.90
29093;DHT22;16167;48.768;14.984;2024-02-26T05:13:08;0.80;99.90
29093;DHT22;16167;48.768;14.984;2024-02-26T05:15:38;0.80;99.90
29093;DHT22;16167;48.768;14.984;2024-02-26T05:18:06;0.80;99.90
29093;DHT22;16167;48.768;14.984;2024-02-26T05:20:35;0.80;99.90
29093;DHT22;16167;48.768;14.984;2024-02-26T05:23:04;0.80;99.90
29093;DHT22;16167;48.768;14.984;2024-02-26T05:25:33;0.80;99.90
29093;DHT22;16167;48.768;14.984;2024-02-26T05:28:01;0.80;99.90
29093;DHT22;16167;48.768;14.984;2024-02-26T05:30:30;0.80;99.90
29093;DHT22;16167;48.768;14.984;2024-02-26T05:32:59;0.80;99.90
29093;DHT22;16167;48.768;14.984;2024-02-26T05:35:28;0.80;99.90
29093;DHT22;16167;48.768;14.984;2024-02-26T05:37:56;0.90;99.90
29093;DHT22;16167;48.768;14.984;2024-02-26T05:40:24;0.90;99.90
29093;DHT22;16167;48.768;14.984;2024-02-26T05:42:51;0.90;99.90
29093;DHT22;16167;48.768;14.984;2024-02-26T05:45:20;0.90;99.90
29093;DHT22;16167;48.768;14.984;2024-02-26T05:47:48;0.90;99.90
29093;DHT22;16167;48.768;14.984;2024-02-26T05:50:18;1.00;99.90
29093;DHT22;16167;48.768;14.984;2024-02-26T05:52:46;1.00;99.90
29093;DHT22;16167;48.768;14.984;2024-02-26T05:55:15;1.00;99.90
29093;DHT22;16167;48.768;14.984;2024-02-26T05:57:43;1.00;99.90
29093;DHT22;16167;48.768;14.984;2024-02-26T06:00:12;1.00;99.90
29093;DHT22;16167;48.768;14.984;2024-02-26T06:02:41;1.00;99.90
29093;DHT22;16167;48.768;14.984;2024-02-26T06:05:10;1.10;99.90
29093;DHT22;16167;48.768;14.984;2024-02-26T06:07:40;1.10;99.90
29093;DHT22;16167;48.768;14.984;2024-02-26T06:10:08;1.10;99.90
29093;DHT22;16167;48.768;14.984;2024-02-26T06:12:37;1.10;99.90
29093;DHT22;16167;48.768;14.984;2024-02-26T06:15:05;1.20;99.90
29093;DHT22;16167;48.768;14.984;2024-02-26T06:17:34;1.30;99.90
29093;DHT22;16167;48.768;14.984;2024-02-26T06:20:02;1.20;99.90
29093;DHT22;16167;48.768;14.984;2024-02-26T06:22:31;1.20;99.90
29093;DHT22;16167;48.768;14.984;2024-02-26T06:25:01;1.30;99.90
29093;DHT22;16167;48.768;14.984;2024-02-26T06:27:29;1.30;99.90
29093;DHT22;16167;48.768;14.984;2024-02-26T06:29:57;1.30;99.90
29093;DHT22;16167;48.768;14.984;2024-02-26T06:32:26;1.30;99.90
29093;DHT22;16167;48.768;14.984;2024-02-26T06:34:55;1.30;99.90
29093;DHT22;16167;48.768;14.984;2024-02-26T06:37:24;1.40;99.90
29093;DHT22;16167;48.768;14.984;2024-02-26T06:39:52;1.40;99.90
29093;DHT22;16167;48.768;14.984;2024-02-26T06:42:22;1.40;99.90
29093;DHT22;16167;48.768;14.984;2024-02-26T06:44:50;1.40;99.90
29093;DHT22;16167;48.768;14.984;2024-02-26T06:47:18;1.50;99.90
29093;DHT22;16167;48.768;14.984;2024-02-26T06:49:47;1.50;99.90
29093;DHT22;16167;48.768;14.984;2024-02-26T06:52:15;1.50;99.90
29093;DHT22;16167;48.768;14.984;2024-02-26T06:54:43;1.60;99.90
29093;DHT22;16167;48.768;14.984;2024-02-26T06:57:15;1.60;99.90
29093;DHT22;16167;48.768;14.984;2024-02-26T06:59:44;1.60;99.90
29093;DHT22;16167;48.768;14.984;2024-02-26T07:02:14;1.60;99.90
29093;DHT22;16167;48.768;14.984;2024-02-26T07:04:43;1.60;99.90
29093;DHT22;16167;48.768;14.984;2024-02-26T07:07:11;1.60;99.90
29093;DHT22;16167;48.768;14.984;2024-02-26T07:09:42;1.70;99.90
29093;DHT22;16167;48.768;14.984;2024-02-26T07:12:11;1.70;99.90
29093;DHT22;16167;48.768;14.984;2024-02-26T07:14:39;1.60;99.90
29093;DHT22;16167;48.768;14.984;2024-02-26T07:17:09;1.70;99.90
29093;DHT22;16167;48.768;14.984;2024-02-26T07:19:37;1.70;99.90
29093;DHT22;16167;48.768;14.984;2024-02-26T07:22:06;1.80;99.90
29093;DHT22;16167;48.768;14.984;2024-02-26T07:24:34;1.80;99.90
29093;DHT22;16167;48.768;14.984;2024-02-26T07:27:03;1.80;99.90
29093;DHT22;16167;48.768;14.984;2024-02-26T07:29:31;1.90;99.90
29093;DHT22;16167;48.768;14.984;2024-02-26T07:32:00;1.90;99.90
29093;DHT22;16167;48.768;14.984;2024-02-26T07:34:29;1.90;99.90
29093;DHT22;16167;48.768;14.984;2024-02-26T07:36:58;1.90;99.90
29093;DHT22;16167;48.768;14.984;2024-02-26T07:39:26;2.00;99.90
29093;DHT22;16167;48.768;14.984;2024-02-26T07:41:54;2.10;99.90
29093;DHT22;16167;48.768;14.984;2024-02-26T07:44:23;2.10;99.90
29093;DHT22;16167;48.768;14.984;2024-02-26T07:46:52;2.10;99.90
29093;DHT22;16167;48.768;14.984;2024-02-26T07:49:20;2.20;99.90
29093;DHT22;16167;48.768;14.984;2024-02-26T07:51:50;2.20;99.90
29093;DHT22;16167;48.768;14.984;2024-02-26T07:54:18;2.30;99.90
29093;DHT22;16167;48.768;14.984;2024-02-26T07:56:46;2.30;99.90
29093;DHT22;16167;48.768;14.984;2024-02-26T07:59:15;2.30;99.90
29093;DHT22;16167;48.768;14.984;2024-02-26T08:01:43;2.30;99.90
29093;DHT22;16167;48.768;14.984;2024-02-26T08:04:18;2.40;99.90
29093;DHT22;16167;48.768;14.984;2024-02-26T08:06:46;2.40;99.90
29093;DHT22;16167;48.768;14.984;2024-02-26T08:09:16;2.40;99.90
29093;DHT22;16167;48.768;14.984;2024-02-26T08:11:44;2.40;99.90
29093;DHT22;16167;48.768;14.984;2024-02-26T08:14:13;2.50;99.90
29093;DHT22;16167;48.768;14.984;2024-02-26T08:16:41;2.50;99.90
29093;DHT22;16167;48.768;14.984;2024-02-26T08:19:09;2.60;99.90
29093;DHT22;16167;48.768;14.984;2024-02-26T08:21:40;2.60;99.90
29093;DHT22;16167;48.768;14.984;2024-02-26T08:24:08;2.60;99.90
29093;DHT22;16167;48.768;14.984;2024-02-26T08:26:38;2.70;99.90
29093;DHT22;16167;48.768;14.984;2024-02-26T08:29:07;2.70;99.90
29093;DHT22;16167;48.768;14.984;2024-02-26T08:31:35;2.70;99.90
29093;DHT22;16167;48.768;14.984;2024-02-26T08:34:04;2.70;99.90
29093;DHT22;16167;48.768;14.984;2024-02-26T08:36:34;2.80;99.90
29093;DHT22;16167;48.768;14.984;2024-02-26T08:39:03;2.80;99.90
29093;DHT22;16167;48.768;14.984;2024-02-26T08:41:31;2.80;99.90
29093;DHT22;16167;48.768;14.984;2024-02-26T08:44:01;2.90;99.90
29093;DHT22;16167;48.768;14.984;2024-02-26T08:46:29;3.00;99.90
29093;DHT22;16167;48.768;14.984;2024-02-26T08:48:57;3.00;99.90
29093;DHT22;16167;48.768;14.984;2024-02-26T08:51:26;3.10;99.90
29093;DHT22;16167;48.768;14.984;2024-02-26T08:53:54;3.10;99.90
29093;DHT22;16167;48.768;14.984;2024-02-26T08:56:23;3.10;99.90
29093;DHT22;16167;48.768;14.984;2024-02-26T08:58:51;3.20;99.20
29093;DHT22;16167;48.768;14.984;2024-02-26T09:01:22;3.30;99.90
29093;DHT22;16167;48.768;14.984;2024-02-26T09:03:50;3.40;99.90
29093;DHT22;16167;48.768;14.984;2024-02-26T09:06:19;3.40;99.90
29093;DHT22;16167;48.768;14.984;2024-02-26T09:08:47;3.50;96.80
29093;DHT22;16167;48.768;14.984;2024-02-26T09:11:16;3.50;96.50
29093;DHT22;16167;48.768;14.984;2024-02-26T09:13:44;3.50;94.40
29093;DHT22;16167;48.768;14.984;2024-02-26T09:16:12;3.50;94.20
29093;DHT22;16167;48.768;14.984;2024-02-26T09:18:42;3.60;96.90
29093;DHT22;16167;48.768;14.984;2024-02-26T09:21:10;3.60;96.50
29093;DHT22;16167;48.768;14.984;2024-02-26T09:23:39;3.70;96.70
29093;DHT22;16167;48.768;14.984;2024-02-26T09:26:07;3.70;96.90
29093;DHT22;16167;48.768;14.984;2024-02-26T09:28:36;3.70;96.20
29093;DHT22;16167;48.768;14.984;2024-02-26T09:31:04;3.70;97.00
29093;DHT22;16167;48.768;14.984;2024-02-26T09:33:33;3.90;97.80
29093;DHT22;16167;48.768;14.984;2024-02-26T09:36:04;3.90;96.40
29093;DHT22;16167;48.768;14.984;2024-02-26T09:38:33;4.00;93.60
29093;DHT22;16167;48.768;14.984;2024-02-26T09:41:22;4.10;95.50
29093;DHT22;16167;48.768;14.984;2024-02-26T09:43:52;4.10;95.80
29093;DHT22;16167;48.768;14.984;2024-02-26T09:46:24;4.10;96.60
29093;DHT22;16167;48.768;14.984;2024-02-26T09:48:53;4.20;95.20
29093;DHT22;16167;48.768;14.984;2024-02-26T09:51:24;4.30;95.70
29093;DHT22;16167;48.768;14.984;2024-02-26T09:53:54;4.40;91.90
29093;DHT22;16167;48.768;14.984;2024-02-26T09:56:23;4.50;92.00
29093;DHT22;16167;48.768;14.984;2024-02-26T09:58:52;4.50;87.40
29093;DHT22;16167;48.768;14.984;2024-02-26T10:01:22;4.50;83.10
29093;DHT22;16167;48.768;14.984;2024-02-26T10:03:55;4.50;79.50
29093;DHT22;16167;48.768;14.984;2024-02-26T10:06:27;4.60;91.50
29093;DHT22;16167;48.768;14.984;2024-02-26T10:08:56;4.60;85.40
29093;DHT22;16167;48.768;14.984;2024-02-26T10:11:27;4.70;85.30
29093;DHT22;16167;48.768;14.984;2024-02-26T10:13:58;4.60;75.60
29093;DHT22;16167;48.768;14.984;2024-02-26T10:16:26;4.60;73.40
29093;DHT22;16167;48.768;14.984;2024-02-26T10:18:55;4.60;73.60
29093;DHT22;16167;48.768;14.984;2024-02-26T10:21:27;4.70;71.10
29093;DHT22;16167;48.768;14.984;2024-02-26T10:23:56;4.70;71.10
29093;DHT22;16167;48.768;14.984;2024-02-26T10:26:24;4.70;73.90
29093;DHT22;16167;48.768;14.984;2024-02-26T10:28:52;4.70;70.70
29093;DHT22;16167;48.768;14.984;2024-02-26T10:31:21;4.70;67.50
29093;DHT22;16167;48.768;14.984;2024-02-26T10:33:50;4.70;65.70
29093;DHT22;16167;48.768;14.984;2024-02-26T10:36:27;4.80;63.60
29093;DHT22;16167;48.768;14.984;2024-02-26T10:39:14;4.80;64.20
29093;DHT22;16167;48.768;14.984;2024-02-26T10:41:43;4.80;67.10
29093;DHT22;16167;48.768;14.984;2024-02-26T10:44:12;4.90;63.50
29093;DHT22;16167;48.768;14.984;2024-02-26T10:46:47;4.90;59.30
29093;DHT22;16167;48.768;14.984;2024-02-26T10:49:17;4.80;56.40
29093;DHT22;16167;48.768;14.984;2024-02-26T10:51:55;4.90;60.40
29093;DHT22;16167;48.768;14.984;2024-02-26T10:54:26;4.90;60.10
29093;DHT22;16167;48.768;14.984;2024-02-26T10:56:56;4.90;60.30
29093;DHT22;16167;48.768;14.984;2024-02-26T10:59:26;4.90;59.70
29093;DHT22;16167;48.768;14.984;2024-02-26T11:01:55;5.00;78.20
29093;DHT22;16167;48.768;14.984;2024-02-26T11:04:24;5.00;67.70
29093;DHT22;16167;48.768;14.984;2024-02-26T11:06:57;5.00;75.80
29093;DHT22;16167;48.768;14.984;2024-02-26T11:09:26;5.10;75.00
29093;DHT22;16167;48.768;14.984;2024-02-26T11:11:57;5.30;75.10
29093;DHT22;16167;48.768;14.984;2024-02-26T11:14:26;5.40;65.90
29093;DHT22;16167;48.768;14.984;2024-02-26T11:16:58;5.40;57.20
29093;DHT22;16167;48.768;14.984;2024-02-26T11:19:28;5.50;61.80
29093;DHT22;16167;48.768;14.984;2024-02-26T11:22:02;5.50;55.70
29093;DHT22;16167;48.768;14.984;2024-02-26T11:24:47;5.50;53.10
29093;DHT22;16167;48.768;14.984;2024-02-26T11:27:17;5.50;52.10
29093;DHT22;16167;48.768;14.984;2024-02-26T11:29:49;5.40;55.70
29093;DHT22;16167;48.768;14.984;2024-02-26T11:32:19;5.40;56.70
29093;DHT22;16167;48.768;14.984;2024-02-26T11:34:48;5.50;58.10
29093;DHT22;16167;48.768;14.984;2024-02-26T11:37:18;5.50;56.80
29093;DHT22;16167;48.768;14.984;2024-02-26T11:39:47;5.50;55.10
29093;DHT22;16167;48.768;14.984;2024-02-26T11:42:16;5.50;52.80
29093;DHT22;16167;48.768;14.984;2024-02-26T11:44:45;5.60;56.00
29093;DHT22;16167;48.768;14.984;2024-02-26T11:47:14;5.70;60.30
29093;DHT22;16167;48.768;14.984;2024-02-26T11:49:46;5.90;59.20
29093;DHT22;16167;48.768;14.984;2024-02-26T11:52:15;6.00;44.20
29093;DHT22;16167;48.768;14.984;2024-02-26T11:54:46;6.20;48.80
29093;DHT22;16167;48.768;14.984;2024-02-26T11:57:25;6.20;34.20
29093;DHT22;16167;48.768;14.984;2024-02-26T11:59:55;6.20;40.10
29093;DHT22;16167;48.768;14.984;2024-02-26T12:02:46;6.20;38.80
29093;DHT22;16167;48.768;14.984;2024-02-26T12:05:16;6.10;38.20
29093;DHT22;16167;48.768;14.984;2024-02-26T12:07:47;6.10;43.70
29093;DHT22;16167;48.768;14.984;2024-02-26T12:10:27;6.20;43.50
29093;DHT22;16167;48.768;14.984;2024-02-26T12:13:00;6.30;43.20
29093;DHT22;16167;48.768;14.984;2024-02-26T12:15:32;6.30;41.70
29093;DHT22;16167;48.768;14.984;2024-02-26T12:18:03;6.40;35.80
29093;DHT22;16167;48.768;14.984;2024-02-26T12:20:32;6.40;42.30
29093;DHT22;16167;48.768;14.984;2024-02-26T12:23:00;6.40;43.10
29093;DHT22;16167;48.768;14.984;2024-02-26T12:25:31;6.40;34.90
29093;DHT22;16167;48.768;14.984;2024-02-26T12:28:00;6.40;30.00
29093;DHT22;16167;48.768;14.984;2024-02-26T12:30:30;6.30;31.30
29093;DHT22;16167;48.768;14.984;2024-02-26T12:32:59;6.30;35.20
29093;DHT22;16167;48.768;14.984;2024-02-26T12:35:28;6.40;33.70
29093;DHT22;16167;48.768;14.984;2024-02-26T12:37:59;6.40;36.10
29093;DHT22;16167;48.768;14.984;2024-02-26T12:40:27;6.40;37.60
29093;DHT22;16167;48.768;14.984;2024-02-26T12:42:58;6.40;31.70
29093;DHT22;16167;48.768;14.984;2024-02-26T12:45:26;6.40;33.80
29093;DHT22;16167;48.768;14.984;2024-02-26T12:47:55;6.40;37.30
29093;DHT22;16167;48.768;14.984;2024-02-26T12:50:24;6.50;39.10
29093;DHT22;16167;48.768;14.984;2024-02-26T12:52:53;6.60;35.20
29093;DHT22;16167;48.768;14.984;2024-02-26T12:55:22;6.70;38.20
29093;DHT22;16167;48.768;14.984;2024-02-26T12:57:51;6.80;40.90
29093;DHT22;16167;48.768;14.984;2024-02-26T13:00:25;6.80;32.70
29093;DHT22;16167;48.768;14.984;2024-02-26T13:02:54;6.80;32.40
29093;DHT22;16167;48.768;14.984;2024-02-26T13:05:23;6.90;26.50
29093;DHT22;16167;48.768;14.984;2024-02-26T13:07:52;6.90;23.60
29093;DHT22;16167;48.768;14.984;2024-02-26T13:10:20;6.80;25.80
29093;DHT22;16167;48.768;14.984;2024-02-26T13:12:49;6.90;28.80
29093;DHT22;16167;48.768;14.984;2024-02-26T13:15:20;6.90;27.20
29093;DHT22;16167;48.768;14.984;2024-02-26T13:17:51;6.90;30.90
29093;DHT22;16167;48.768;14.984;2024-02-26T13:20:27;6.90;33.50
29093;DHT22;16167;48.768;14.984;2024-02-26T13:23:06;6.90;29.30
29093;DHT22;16167;48.768;14.984;2024-02-26T13:25:35;6.80;25.60
29093;DHT22;16167;48.768;14.984;2024-02-26T13:28:14;6.90;33.60
29093;DHT22;16167;48.768;14.984;2024-02-26T13:30:50;6.90;36.00
29093;DHT22;16167;48.768;14.984;2024-02-26T13:33:21;6.90;23.40
29093;DHT22;16167;48.768;14.984;2024-02-26T13:35:50;6.80;20.80
29093;DHT22;16167;48.768;14.984;2024-02-26T13:38:19;6.80;30.90
29093;DHT22;16167;48.768;14.984;2024-02-26T13:40:47;6.80;27.50
29093;DHT22;16167;48.768;14.984;2024-02-26T13:43:16;6.80;32.70
29093;DHT22;16167;48.768;14.984;2024-02-26T13:45:44;6.80;34.50
29093;DHT22;16167;48.768;14.984;2024-02-26T13:48:13;6.70;29.80
29093;DHT22;16167;48.768;14.984;2024-02-26T13:50:43;6.70;33.50
29093;DHT22;16167;48.768;14.984;2024-02-26T13:53:13;6.70;30.70
29093;DHT22;16167;48.768;14.984;2024-02-26T13:55:42;6.70;31.20
29093;DHT22;16167;48.768;14.984;2024-02-26T13:58:12;6.60;32.80
29093;DHT22;16167;48.768;14.984;2024-02-26T14:00:42;6.70;36.10
29093;DHT22;16167;48.768;14.984;2024-02-26T14:03:10;6.60;29.60
29093;DHT22;16167;48.768;14.984;2024-02-26T14:05:39;6.70;29.10
29093;DHT22;16167;48.768;14.984;2024-02-26T14:08:13;6.70;29.20
29093;DHT22;16167;48.768;14.984;2024-02-26T14:10:41;6.70;33.40
29093;DHT22;16167;48.768;14.984;2024-02-26T14:13:11;6.70;36.90
29093;DHT22;16167;48.768;14.984;2024-02-26T14:15:39;6.70;30.00
29093;DHT22;16167;48.768;14.984;2024-02-26T14:18:08;6.70;32.60
29093;DHT22;16167;48.768;14.984;2024-02-26T14:20:36;6.70;42.40
29093;DHT22;16167;48.768;14.984;2024-02-26T14:23:05;6.80;42.80
29093;DHT22;16167;48.768;14.984;2024-02-26T14:25:36;6.80;33.00
29093;DHT22;16167;48.768;14.984;2024-02-26T14:28:05;6.80;38.40
29093;DHT22;16167;48.768;14.984;2024-02-26T14:30:34;6.80;40.00
29093;DHT22;16167;48.768;14.984;2024-02-26T14:33:02;6.80;35.00
29093;DHT22;16167;48.768;14.984;2024-02-26T14:35:31;6.90;36.90
29093;DHT22;16167;48.768;14.984;2024-02-26T14:37:59;6.90;39.40
29093;DHT22;16167;48.768;14.984;2024-02-26T14:40:28;6.90;34.00
29093;DHT22;16167;48.768;14.984;2024-02-26T14:42:58;6.90;32.70
29093;DHT22;16167;48.768;14.984;2024-02-26T14:45:27;6.90;29.90
29093;DHT22;16167;48.768;14.984;2024-02-26T14:47:56;6.80;34.50
29093;DHT22;16167;48.768;14.984;2024-02-26T14:50:24;6.80;36.20
29093;DHT22;16167;48.768;14.984;2024-02-26T14:52:52;6.80;29.70
29093;DHT22;16167;48.768;14.984;2024-02-26T14:55:21;6.80;33.60
29093;DHT22;16167;48.768;14.984;2024-02-26T14:57:49;6.80;32.30
29093;DHT22;16167;48.768;14.984;2024-02-26T15:00:19;6.80;35.20
29093;DHT22;16167;48.768;14.984;2024-02-26T15:02:48;6.80;31.60
29093;DHT22;16167;48.768;14.984;2024-02-26T15:05:16;6.80;33.50
29093;DHT22;16167;48.768;14.984;2024-02-26T15:07:46;6.80;39.40
29093;DHT22;16167;48.768;14.984;2024-02-26T15:10:14;6.80;39.20
29093;DHT22;16167;48.768;14.984;2024-02-26T15:12:43;6.80;38.50
29093;DHT22;16167;48.768;14.984;2024-02-26T15:15:11;6.80;38.40
29093;DHT22;16167;48.768;14.984;2024-02-26T15:17:41;6.80;40.80
29093;DHT22;16167;48.768;14.984;2024-02-26T15:20:11;6.80;37.80
29093;DHT22;16167;48.768;14.984;2024-02-26T15:22:39;6.70;39.60
29093;DHT22;16167;48.768;14.984;2024-02-26T15:25:08;6.70;36.90
29093;DHT22;16167;48.768;14.984;2024-02-26T15:27:41;6.70;35.70
29093;DHT22;16167;48.768;14.984;2024-02-26T15:30:10;6.70;37.30
29093;DHT22;16167;48.768;14.984;2024-02-26T15:32:38;6.80;33.40
29093;DHT22;16167;48.768;14.984;2024-02-26T15:35:09;6.80;36.60
29093;DHT22;16167;48.768;14.984;2024-02-26T15:37:37;6.80;37.80
29093;DHT22;16167;48.768;14.984;2024-02-26T15:40:06;6.80;36.30
29093;DHT22;16167;48.768;14.984;2024-02-26T15:42:34;6.80;35.40